Time;durP1;ratioP1;P1;durP2;ratioP2;P2;SDS_P1;SDS_P2;PMS_P1;PMS_P2;Temp;Humidity;BMP_temperature;BMP_pressure;BME280_temperature;BME280_humidity;BME280_pressure;Samples;Min_cycle;Max_cycle;Signal;HPM_P1;HPM_P2
2021/05/25 07:26:00;;;;;;;2.13;0.85;;;;;;;;;;11517025;22;34443651;-87
2021/05/25 08:40:46;;;;;;;2.10;0.90;;;;;;;;;;12893763;23;20012;-89
2021/05/25 08:46:33;;;;;;;1.40;1.02;;;;;;;;;;12892908;23;20026;-89
2021/05/25 09:38:39;;;;;;;1.90;0.90;;;;;;;;;;12888148;23;20059;-86
2021/05/25 09:50:17;;;;;;;2.58;1.00;;;;;;;;;;12754447;23;20035;-88
2021/05/25 09:55:54;;;;;;;6.28;1.30;;;;;;;;;;12734475;23;20049;-86
2021/05/25 10:01:19;;;;;;;2.53;1.15;;;;;;;;;;12733601;23;20070;-87
2021/05/25 10:07:01;;;;;;;3.83;1.10;;;;;;;;;;12695328;23;20017;-87
2021/05/25 10:12:26;;;;;;;3.90;1.10;;;;;;;;;;12693868;23;20406;-86
2021/05/25 11:19:54;;;;;;;1.20;0.82;;;;;;;;;;12881253;23;20017;-86
2021/05/25 11:36:52;;;;;;;3.00;1.00;;;;;;;;;;12697270;23;20014;-87
2021/05/25 11:59:42;;;;;;;4.40;1.20;;;;;;;;;;12510195;23;20007;-87
2021/05/25 12:10:54;;;;;;;3.28;1.20;;;;;;;;;;12505763;23;20463;-88
2021/05/25 12:16:26;;;;;;;2.83;1.02;;;;;;;;;;12588464;23;20386;-87
2021/05/25 12:22:06;;;;;;;3.72;2.10;;;;;;;;;;12685085;23;20072;-89
2021/05/25 12:28:04;;;;;;;5.18;2.00;;;;;;;;;;12573033;23;20057;-88
2021/05/25 12:33:30;;;;;;;2.90;1.50;;;;;;;;;;12695565;23;20026;-87
2021/05/25 12:44:11;;;;;;;5.03;1.90;;;;;;;;;;12700265;23;20014;-85
2021/05/25 12:49:48;;;;;;;6.22;2.15;;;;;;;;;;12665698;23;20045;-88
2021/05/25 12:55:15;;;;;;;3.22;1.70;;;;;;;;;;12693900;23;20020;-88
2021/05/25 13:06:34;;;;;;;4.05;1.58;;;;;;;;;;12876893;23;20005;-87
2021/05/25 13:34:42;;;;;;;4.68;1.70;;;;;;;;;;12887871;23;20013;-86
2021/05/25 13:45:42;;;;;;;2.22;1.30;;;;;;;;;;12624575;23;20002;-88
2021/05/25 14:07:45;;;;;;;3.30;1.00;;;;;;;;;;12623555;23;19999;-87
2021/05/25 14:12:46;;;;;;;1.92;0.90;;;;;;;;;;12602424;23;20404;-87
2021/05/25 14:17:47;;;;;;;2.17;0.80;;;;;;;;;;12848530;23;20055;-88
2021/05/25 14:22:49;;;;;;;2.90;0.90;;;;;;;;;;12847354;23;20004;-88
2021/05/25 14:27:58;;;;;;;2.05;1.00;;;;;;;;;;12849832;23;20024;-87
2021/05/25 14:33:22;;;;;;;;;;;;;;;;;;;;;
2021/05/25 14:38:33;;;;;;;2.08;1.00;;;;;;;;;;12873751;23;20051;-88
2021/05/25 14:44:01;;;;;;;;;;;;;;;;;;;;;
2021/05/25 14:49:34;;;;;;;4.82;1.30;;;;;;;;;;12875615;23;20023;-86
2021/05/25 14:54:44;;;;;;;1.80;1.05;;;;;;;;;;12695739;23;20017;-86
2021/05/25 14:59:48;;;;;;;2.88;1.20;;;;;;;;;;12854705;23;20408;-87
2021/05/25 15:05:05;;;;;;;2.95;1.58;;;;;;;;;;12881409;23;19997;-87
2021/05/25 15:10:14;;;;;;;3.55;1.55;;;;;;;;;;12856012;23;20389;-87
2021/05/25 15:15:15;;;;;;;2.53;1.55;;;;;;;;;;12856542;23;20083;-87
2021/05/25 15:20:18;;;;;;;3.90;1.70;;;;;;;;;;12856428;23;20028;-86
2021/05/25 15:25:19;;;;;;;2.70;1.52;;;;;;;;;;12876561;22;20007;-86
2021/05/25 15:30:37;;;;;;;3.45;1.20;;;;;;;;;;12878220;23;19992;-86
2021/05/25 15:35:39;;;;;;;1.67;1.05;;;;;;;;;;12878187;23;20315;-87
2021/05/25 15:40:42;;;;;;;6.30;1.35;;;;;;;;;;12866347;23;20392;-87
2021/05/25 15:45:45;;;;;;;2.65;1.00;;;;;;;;;;12862723;23;20004;-87
2021/05/25 15:50:46;;;;;;;2.25;0.63;;;;;;;;;;12867615;23;20005;-86
2021/05/25 15:55:47;;;;;;;2.83;1.15;;;;;;;;;;12868757;23;20099;-87
2021/05/25 16:00:49;;;;;;;3.13;1.00;;;;;;;;;;12880170;23;20008;-87
2021/05/25 16:05:50;;;;;;;2.30;0.85;;;;;;;;;;12853296;23;20014;-87
2021/05/25 16:10:54;;;;;;;1.88;0.85;;;;;;;;;;12853820;23;20012;-87
2021/05/25 16:15:55;;;;;;;2.20;0.73;;;;;;;;;;12852155;23;20027;-88
2021/05/25 16:20:56;;;;;;;2.35;0.88;;;;;;;;;;12851717;23;20005;-86
2021/05/25 16:25:57;;;;;;;2.65;1.10;;;;;;;;;;12892155;23;20099;-85
2021/05/25 16:31:24;;;;;;;1.23;0.70;;;;;;;;;;12919516;23;20012;-87
2021/05/25 16:36:26;;;;;;;3.05;1.20;;;;;;;;;;12913182;23;20009;-86
